createdAt,value
2019-02-05T00:02:24.265Z,78597.55
2019-02-05T00:04:55.491Z,78602.58
2019-02-05T00:07:26.740Z,78603.58
2019-02-05T00:09:58.009Z,78601.57
2019-02-05T00:12:29.123Z,78588.50
2019-02-05T00:15:00.384Z,78591.52
2019-02-05T00:17:31.687Z,78610.63
2019-02-05T00:20:02.995Z,78607.60
2019-02-05T00:22:34.242Z,78601.57
2019-02-05T00:25:06.020Z,78601.57
2019-02-05T00:27:37.290Z,78588.50
2019-02-05T00:30:09.101Z,78602.58
2019-02-05T00:32:40.529Z,78607.60
2019-02-05T00:35:12.173Z,78613.64
2019-02-05T00:37:43.416Z,78600.56
2019-02-05T00:40:15.685Z,78597.55
2019-02-05T00:42:46.919Z,78606.59
2019-02-05T00:45:18.879Z,78587.48
2019-02-05T00:47:50.323Z,78597.55
2019-02-05T00:50:22.064Z,78621.69
2019-02-05T00:52:53.284Z,78618.67
2019-02-05T00:55:24.547Z,78624.70
2019-02-05T01:00:30.864Z,78633.75
2019-02-05T01:03:02.507Z,78627.72
2019-02-05T01:05:33.744Z,78615.65
2019-02-05T01:08:05.003Z,78621.69
2019-02-05T01:10:36.333Z,78634.76
2019-02-05T01:13:07.729Z,78620.68
2019-02-05T01:15:39.005Z,78637.77
2019-02-05T01:18:10.652Z,78652.86
2019-02-05T01:20:41.921Z,78649.84
2019-02-05T01:23:13.173Z,78638.78
2019-02-05T01:25:44.450Z,78643.81
2019-02-05T01:28:15.601Z,78642.80
2019-02-05T01:30:46.860Z,78656.88
2019-02-05T01:33:17.996Z,78650.84
2019-02-05T01:35:49.705Z,78641.80
2019-02-05T01:38:20.931Z,78640.80
2019-02-05T01:40:52.213Z,78644.81
2019-02-05T01:43:23.348Z,78655.88
2019-02-05T01:45:54.636Z,78661.91
2019-02-05T01:48:25.883Z,78659.91
2019-02-05T01:50:57.143Z,78662.92
2019-02-05T01:53:28.326Z,78662.92
2019-02-05T01:55:59.410Z,78661.91
2019-02-05T01:58:30.724Z,78665.94
2019-02-05T02:01:01.931Z,78656.88
2019-02-05T02:03:33.356Z,78650.84
2019-02-05T02:06:04.762Z,78655.88
2019-02-05T02:08:36.076Z,78667.95
2019-02-05T02:11:07.339Z,78658.89
2019-02-05T02:13:38.727Z,78653.86
2019-02-05T02:16:09.873Z,78649.84
2019-02-05T02:18:41.165Z,78650.84
2019-02-05T02:21:12.373Z,78656.88
2019-02-05T02:23:43.907Z,78637.77
2019-02-05T02:26:15.123Z,78637.77
2019-02-05T02:28:46.605Z,78629.73
2019-02-05T02:31:17.839Z,78630.73
2019-02-05T02:33:49.107Z,78643.81
2019-02-05T02:36:20.316Z,78639.78
2019-02-05T02:38:51.512Z,78640.80
2019-02-05T02:41:23.105Z,78659.91
2019-02-05T02:43:54.393Z,78660.91
2019-02-05T02:46:25.671Z,78659.91
2019-02-05T02:48:56.924Z,78663.92
2019-02-05T02:51:28.147Z,78660.91
2019-02-05T02:53:59.754Z,78672.97
2019-02-05T02:56:31.057Z,78652.86
2019-02-05T02:59:02.366Z,78651.85
2019-02-05T03:01:33.599Z,78661.91
2019-02-05T03:04:04.942Z,78653.86
2019-02-05T03:06:36.306Z,78646.83
2019-02-05T03:09:11.031Z,78645.82
2019-02-05T03:11:42.310Z,78652.86
2019-02-05T03:14:13.565Z,78641.80
2019-02-05T03:16:44.815Z,78651.85
2019-02-05T03:19:16.067Z,78639.78
2019-02-05T03:21:47.654Z,78639.78
2019-02-05T03:24:18.852Z,78649.84
2019-02-05T03:26:50.027Z,78640.80
2019-02-05T03:29:21.318Z,78622.69
2019-02-05T03:31:52.604Z,78637.77
2019-02-05T03:34:23.872Z,78635.77
2019-02-05T03:36:55.224Z,78625.70
2019-02-05T03:39:26.789Z,78624.70
2019-02-05T03:41:58.003Z,78613.64
2019-02-05T03:44:29.267Z,78631.73
2019-02-05T03:47:00.516Z,78639.78
2019-02-05T03:49:32.884Z,78649.84
2019-02-05T03:52:44.001Z,78633.75
2019-02-05T03:55:55.549Z,78631.73
2019-02-05T03:59:07.110Z,78641.80
2019-02-05T04:02:32.616Z,78646.83
2019-02-05T04:06:16.537Z,78642.80
2019-02-05T04:09:33.217Z,78632.75
2019-02-05T04:12:54.160Z,78655.88
2019-02-05T04:15:56.925Z,78648.84
2019-02-05T04:19:16.536Z,78641.80
2019-02-05T04:22:21.510Z,78622.69
2019-02-05T04:25:59.424Z,78642.80
2019-02-05T04:29:22.956Z,78630.73
2019-02-05T04:32:58.937Z,78627.72
2019-02-05T04:36:24.515Z,78632.75
2019-02-05T04:39:35.692Z,78639.78
2019-02-05T04:42:36.120Z,78605.59
2019-02-05T04:45:51.712Z,78616.66
2019-02-05T04:49:40.583Z,78628.72
2019-02-05T04:53:25.394Z,78626.71
2019-02-05T04:56:35.024Z,78643.81
2019-02-05T05:00:08.556Z,78643.81
2019-02-05T05:03:23.013Z,78649.84
2019-02-05T05:06:26.004Z,78645.82
2019-02-05T05:09:36.950Z,78647.83
2019-02-05T05:12:08.198Z,78648.84
2019-02-05T05:14:39.488Z,78638.78
2019-02-05T05:17:10.738Z,78642.80
2019-02-05T05:19:42.125Z,78632.75
2019-02-05T05:22:13.671Z,78647.83
2019-02-05T05:24:45.891Z,78638.78
2019-02-05T05:27:20.336Z,78643.81
2019-02-05T05:29:52.785Z,78645.82
2019-02-05T05:32:24.123Z,78641.80
2019-02-05T05:34:55.284Z,78637.77
2019-02-05T05:37:26.425Z,78636.77
2019-02-05T05:39:57.845Z,78650.84
2019-02-05T05:42:29.277Z,78626.71
2019-02-05T05:45:00.560Z,78630.73
2019-02-05T05:47:31.787Z,78635.77
2019-02-05T05:50:03.060Z,78632.75
2019-02-05T05:52:34.292Z,78633.75
2019-02-05T05:55:06.089Z,78643.81
2019-02-05T05:57:37.283Z,78651.85
2019-02-05T06:00:13.592Z,78655.88
2019-02-05T06:02:44.750Z,78642.80
2019-02-05T06:05:19.448Z,78642.80
2019-02-05T06:07:50.775Z,78641.80
2019-02-05T06:10:22.132Z,78647.83
2019-02-05T06:12:53.455Z,78635.77
2019-02-05T06:15:24.736Z,78651.85
2019-02-05T06:17:56.035Z,78651.85
2019-02-05T06:20:27.299Z,78656.88
2019-02-05T06:22:58.627Z,78650.84
2019-02-05T06:25:29.920Z,78652.86
2019-02-05T06:28:01.189Z,78654.88
2019-02-05T06:30:32.374Z,78665.94
2019-02-05T06:33:03.729Z,78671.97
2019-02-05T06:35:35.331Z,78663.92
2019-02-05T06:38:06.824Z,78675.98
2019-02-05T06:40:38.087Z,78680.02
2019-02-05T06:43:09.379Z,78669.95
2019-02-05T06:45:41.584Z,78666.94
2019-02-05T06:48:13.230Z,78678.00
2019-02-05T06:50:44.468Z,78667.95
2019-02-05T06:53:15.849Z,78667.95
2019-02-05T06:55:47.070Z,78672.97
2019-02-05T06:58:18.276Z,78681.02
2019-02-05T07:00:49.563Z,78662.92
2019-02-05T07:03:21.155Z,78674.98
2019-02-05T07:05:52.493Z,78680.02
2019-02-05T07:08:23.784Z,78671.97
2019-02-05T07:10:55.395Z,78685.05
2019-02-05T07:13:26.739Z,78668.95
2019-02-05T07:15:58.148Z,78688.06
2019-02-05T07:18:29.467Z,78681.02
2019-02-05T07:21:00.793Z,78695.09
2019-02-05T07:23:32.168Z,78698.11
2019-02-05T07:26:03.519Z,78694.09
2019-02-05T07:28:34.847Z,78698.11
2019-02-05T07:31:07.171Z,78699.13
2019-02-05T07:33:38.497Z,78692.08
2019-02-05T07:36:09.913Z,78666.94
2019-02-05T07:38:41.237Z,78684.03
2019-02-05T07:41:12.500Z,78692.08
2019-02-05T07:43:43.835Z,78683.03
2019-02-05T07:46:15.667Z,78677.00
2019-02-05T07:48:46.996Z,78678.00
2019-02-05T07:51:18.296Z,78679.01
2019-02-05T07:53:49.630Z,78664.93
2019-02-05T07:56:20.968Z,78667.95
2019-02-05T07:58:52.267Z,78673.98
2019-02-05T08:01:23.515Z,78681.02
2019-02-05T08:03:54.845Z,78686.05
2019-02-05T08:06:26.169Z,78693.09
2019-02-05T08:08:57.514Z,78695.09
2019-02-05T08:11:28.883Z,78709.18
2019-02-05T08:14:00.602Z,78698.11
2019-02-05T08:16:33.970Z,78698.11
2019-02-05T08:19:05.085Z,78702.14
2019-02-05T08:21:36.553Z,78704.16
2019-02-05T08:24:08.394Z,78706.16
2019-02-05T08:26:39.758Z,78698.11
2019-02-05T08:29:21.406Z,78685.05
2019-02-05T08:31:44.435Z,78692.08
2019-02-05T08:34:15.732Z,78682.03
2019-02-05T08:36:47.065Z,78695.09
2019-02-05T08:39:18.364Z,78693.09
2019-02-05T08:41:49.734Z,78690.07
2019-02-05T08:44:20.982Z,78689.06
2019-02-05T08:46:52.357Z,78693.09
2019-02-05T08:49:23.656Z,78685.05
2019-02-05T08:51:55.001Z,78684.03
2019-02-05T08:54:26.226Z,78673.98
2019-02-05T08:56:58.141Z,78678.00
2019-02-05T08:59:29.456Z,78677.00
2019-02-05T09:02:00.923Z,78659.91
2019-02-05T09:04:32.228Z,78673.98
2019-02-05T09:10:32.725Z,78677.00
2019-02-05T09:13:04.555Z,78680.02
2019-02-05T09:15:36.172Z,78667.95
2019-02-05T09:18:08.099Z,78655.88
2019-02-05T09:20:39.655Z,78642.80
2019-02-05T09:23:13.992Z,78642.80
2019-02-05T09:25:43.810Z,78652.86
2019-02-05T09:28:18.820Z,78646.83
2019-02-05T09:30:49.742Z,78640.80
2019-02-05T09:33:21.139Z,78642.80
2019-02-05T09:35:52.435Z,78617.66
2019-02-05T09:38:23.733Z,78636.77
2019-02-05T09:40:55.071Z,78629.73
2019-02-05T09:43:26.441Z,78617.66
2019-02-05T09:45:57.851Z,78623.70
2019-02-05T09:48:29.177Z,78621.69
2019-02-05T09:51:00.507Z,78620.68
2019-02-05T09:53:31.829Z,78615.65
2019-02-05T09:56:03.544Z,78635.77
2019-02-05T09:58:34.843Z,78640.80
2019-02-05T10:01:07.159Z,78632.75
2019-02-05T10:03:38.488Z,78629.73
2019-02-05T10:06:09.818Z,78641.80
2019-02-05T10:08:41.117Z,78639.78
2019-02-05T10:11:12.442Z,78623.70
2019-02-05T10:13:43.685Z,78622.69
2019-02-05T10:16:15.007Z,78637.77
2019-02-05T10:18:46.330Z,78634.76
2019-02-05T10:21:17.632Z,78649.84
2019-02-05T10:23:49.327Z,78659.91
2019-02-05T10:26:20.640Z,78657.89
2019-02-05T10:28:52.122Z,78657.89
2019-02-05T10:31:23.445Z,78664.93
2019-02-05T10:33:55.529Z,78652.86
2019-02-05T10:36:26.963Z,78621.69
2019-02-05T10:38:58.199Z,78626.71
2019-02-05T10:41:29.603Z,78611.63
2019-02-05T10:44:00.891Z,78615.65
2019-02-05T10:46:32.226Z,78599.56
2019-02-05T10:49:03.796Z,78602.58
2019-02-05T10:51:35.503Z,78609.61
2019-02-05T10:54:07.243Z,78586.48
2019-02-05T10:56:38.532Z,78605.59
2019-02-05T10:59:09.863Z,78589.50
2019-02-05T11:01:41.175Z,78576.43
2019-02-05T11:04:12.636Z,78576.43
2019-02-05T11:06:43.917Z,78553.30
2019-02-05T11:09:15.399Z,78549.28
2019-02-05T11:11:56.314Z,78570.39
2019-02-05T11:14:27.684Z,78579.45
2019-02-05T11:16:58.920Z,78568.38
2019-02-05T11:19:31.436Z,78573.41
2019-02-05T11:22:02.711Z,78569.39
2019-02-05T11:24:34.099Z,78562.34
2019-02-05T11:27:05.491Z,78545.25
2019-02-05T11:29:36.794Z,78520.11
2019-02-05T11:32:08.443Z,78519.11
2019-02-05T11:34:39.751Z,78530.17
2019-02-05T11:37:11.056Z,78531.17
2019-02-05T11:39:42.395Z,78520.11
2019-02-05T11:42:13.699Z,78507.04
2019-02-05T11:44:44.964Z,78502.02
2019-02-05T11:47:16.482Z,78482.91
2019-02-05T11:49:47.815Z,78493.97
2019-02-05T11:52:19.120Z,78489.94
2019-02-05T11:54:50.462Z,78475.86
2019-02-05T11:57:21.783Z,78451.73
2019-02-05T11:59:53.399Z,78469.83
2019-02-05T12:02:24.734Z,78482.91
2019-02-05T12:04:56.164Z,78513.07
2019-02-05T12:07:27.381Z,78501.00
2019-02-05T12:09:59.242Z,78498.99
2019-02-05T12:12:30.574Z,78489.94
2019-02-05T12:15:01.907Z,78483.91
2019-02-05T12:17:33.205Z,78477.88
2019-02-05T12:20:05.111Z,78483.91
2019-02-05T12:22:36.439Z,78464.80
2019-02-05T12:25:11.963Z,78452.73
2019-02-05T12:27:43.573Z,78462.79
2019-02-05T12:30:26.176Z,78462.79
2019-02-05T12:32:57.786Z,78462.79
2019-02-05T12:35:29.212Z,78463.80
2019-02-05T12:38:00.844Z,78447.70
2019-02-05T12:40:32.158Z,78447.70
2019-02-05T12:43:03.659Z,78464.80
2019-02-05T12:45:35.475Z,78471.84
2019-02-05T12:48:07.746Z,78480.89
2019-02-05T12:50:39.864Z,78480.89
2019-02-05T12:53:12.523Z,78463.80
2019-02-05T12:55:44.014Z,78469.83
2019-02-05T12:58:25.744Z,78483.91
2019-02-05T13:00:58.579Z,78470.83
2019-02-05T13:03:33.169Z,78462.79
2019-02-05T13:06:04.629Z,78461.78
2019-02-05T13:08:36.017Z,78468.83
2019-02-05T13:11:07.791Z,78465.80
2019-02-05T13:13:39.161Z,78462.79
2019-02-05T13:16:10.450Z,78473.85
2019-02-05T13:19:22.209Z,78474.86
2019-02-05T13:22:04.941Z,78455.75
2019-02-05T13:24:49.242Z,78463.80
2019-02-05T13:27:26.795Z,78467.81
2019-02-05T13:30:02.166Z,78454.74
2019-02-05T13:32:37.128Z,78451.73
2019-02-05T13:35:09.891Z,78437.65
2019-02-05T13:37:41.200Z,78448.71
2019-02-05T13:40:17.827Z,78439.66
2019-02-05T13:42:49.340Z,78450.72
2019-02-05T13:45:24.871Z,78464.80
2019-02-05T13:47:56.267Z,78458.77
2019-02-05T13:50:33.751Z,78442.67
2019-02-05T13:53:05.575Z,78459.77
2019-02-05T13:55:41.299Z,78460.78
2019-02-05T13:58:15.629Z,78442.67
2019-02-05T14:00:55.152Z,78453.73
2019-02-05T14:03:26.631Z,78446.70
2019-02-05T14:05:57.963Z,78438.66
2019-02-05T14:08:29.161Z,78424.58
2019-02-05T14:11:00.434Z,78425.58
2019-02-05T14:13:51.097Z,78424.58
2019-02-05T14:16:22.656Z,78458.77
2019-02-05T14:18:55.669Z,78440.66
2019-02-05T14:21:26.848Z,78435.64
2019-02-05T14:23:58.046Z,78430.61
2019-02-05T14:26:29.362Z,78448.71
2019-02-05T14:29:00.665Z,78466.81
2019-02-05T14:31:31.902Z,78470.83
2019-02-05T14:34:03.472Z,78464.80
2019-02-05T14:36:34.970Z,78464.80
2019-02-05T14:39:11.023Z,78452.73
2019-02-05T14:41:42.241Z,78464.80
2019-02-05T14:44:13.619Z,78454.74
2019-02-05T14:46:44.954Z,78442.67
2019-02-05T14:49:16.269Z,78430.61
2019-02-05T14:51:47.599Z,78441.67
2019-02-05T14:54:18.918Z,78452.73
2019-02-05T14:56:50.242Z,78450.72
2019-02-05T14:59:21.468Z,78467.81
2019-02-05T15:01:52.843Z,78460.78
2019-02-05T15:04:24.141Z,78467.81
2019-02-05T15:06:55.606Z,78477.88
2019-02-05T15:09:30.197Z,78466.81
2019-02-05T15:12:01.724Z,78467.81
2019-02-05T15:14:34.396Z,78476.87
2019-02-05T15:17:06.508Z,78468.83
2019-02-05T15:19:38.090Z,78485.92
2019-02-05T15:22:09.530Z,78478.88
2019-02-05T15:24:41.077Z,78482.91
2019-02-05T15:27:12.636Z,78472.84
2019-02-05T15:29:52.644Z,78477.88
2019-02-05T15:32:47.781Z,78456.76
2019-02-05T15:35:19.163Z,78461.78
2019-02-05T15:37:50.539Z,78475.86
2019-02-05T15:40:22.008Z,78466.81
2019-02-05T15:42:53.333Z,78467.81
2019-02-05T15:45:28.352Z,78472.84
2019-02-05T15:47:59.671Z,78477.88
2019-02-05T15:50:31.034Z,78492.95
2019-02-05T15:53:02.455Z,78487.93
2019-02-05T15:55:33.738Z,78484.91
2019-02-05T15:58:05.673Z,78469.83
2019-02-05T16:00:37.200Z,78479.89
2019-02-05T16:03:10.112Z,78491.95
2019-02-05T16:05:41.721Z,78478.88
2019-02-05T16:08:13.127Z,78486.92
2019-02-05T16:10:44.766Z,78483.91
2019-02-05T16:13:16.133Z,78488.94
2019-02-05T16:15:47.503Z,78491.95
2019-02-05T16:18:19.877Z,78489.94
2019-02-05T16:20:51.237Z,78490.95
2019-02-05T16:23:23.133Z,78487.93
2019-02-05T16:26:13.414Z,78483.91
2019-02-05T16:28:47.920Z,78488.94
2019-02-05T16:31:27.835Z,78466.81
2019-02-05T16:33:58.355Z,78481.90
2019-02-05T16:36:32.805Z,78494.97
2019-02-05T16:39:06.400Z,78500.00
2019-02-05T16:41:38.662Z,78505.03
2019-02-05T16:44:10.244Z,78484.91
2019-02-05T16:46:41.844Z,78488.94
2019-02-05T16:49:13.192Z,78491.95
2019-02-05T16:51:44.477Z,78500.00
2019-02-05T16:54:15.842Z,78496.98
2019-02-05T16:56:47.229Z,78504.02
2019-02-05T16:59:18.690Z,78502.02
2019-02-05T17:01:50.131Z,78488.94
2019-02-05T17:04:21.514Z,78502.02
2019-02-05T17:06:52.835Z,78493.97
2019-02-05T17:09:24.547Z,78482.91
2019-02-05T17:11:56.958Z,78475.86
2019-02-05T17:14:28.499Z,78486.92
2019-02-05T17:16:59.859Z,78479.89
2019-02-05T17:19:31.912Z,78491.95
2019-02-05T17:22:03.454Z,78493.97
2019-02-05T17:24:34.796Z,78495.97
2019-02-05T17:27:06.326Z,78504.02
2019-02-05T17:29:38.031Z,78509.05
2019-02-05T17:32:09.421Z,78491.95
2019-02-05T17:34:41.102Z,78498.99
2019-02-05T17:37:15.030Z,78465.80
2019-02-05T17:39:46.542Z,78454.74
2019-02-05T17:42:18.701Z,78473.85
2019-02-05T17:44:50.201Z,78462.79
2019-02-05T17:47:21.743Z,78476.87
2019-02-05T17:49:53.203Z,78453.73
2019-02-05T17:52:24.486Z,78482.91
2019-02-05T17:54:55.937Z,78482.91
2019-02-05T17:57:27.513Z,78450.72
2019-02-05T17:59:59.228Z,78459.77
2019-02-05T18:02:30.653Z,78475.86
2019-02-05T18:05:15.517Z,78480.89
2019-02-05T18:07:47.589Z,78462.79
2019-02-05T18:10:22.527Z,78460.78
2019-02-05T18:12:53.948Z,78476.87
2019-02-05T18:15:29.315Z,78476.87
2019-02-05T18:18:00.772Z,78478.88
2019-02-05T18:20:32.149Z,78484.91
2019-02-05T18:23:03.555Z,78489.94
2019-02-05T18:25:34.809Z,78486.92
2019-02-05T18:28:06.945Z,78505.03
2019-02-05T18:30:39.721Z,78496.98
2019-02-05T18:33:11.420Z,78491.95
2019-02-05T18:35:42.752Z,78490.95
2019-02-05T18:38:16.278Z,78477.88
2019-02-05T18:40:47.859Z,78465.80
2019-02-05T18:43:19.221Z,78469.83
2019-02-05T18:45:50.963Z,78474.86
2019-02-05T18:48:22.339Z,78477.88
2019-02-05T18:50:53.680Z,78476.87
2019-02-05T18:53:25.147Z,78466.81
2019-02-05T18:55:56.536Z,78444.69
2019-02-05T18:58:27.946Z,78430.61
2019-02-05T19:00:59.300Z,78454.74
2019-02-05T19:03:30.638Z,78444.69
2019-02-05T19:06:02.061Z,78474.86
2019-02-05T19:08:33.460Z,78468.83
2019-02-05T19:11:04.780Z,78477.88
2019-02-05T19:13:36.135Z,78486.92
2019-02-05T19:16:08.155Z,78476.87
2019-02-05T19:18:39.496Z,78474.86
2019-02-05T19:21:10.900Z,78449.72
2019-02-05T19:23:42.123Z,78459.77
2019-02-05T19:26:16.864Z,78438.66
2019-02-05T19:28:48.215Z,78449.72
2019-02-05T19:31:38.426Z,78423.57
2019-02-05T19:34:10.344Z,78432.62
2019-02-05T19:36:41.917Z,78427.59
2019-02-05T19:39:13.354Z,78419.55
2019-02-05T19:41:52.288Z,78448.71
2019-02-05T19:44:23.699Z,78456.76
2019-02-05T19:47:00.796Z,78459.77
2019-02-05T19:49:37.682Z,78445.69
2019-02-05T19:52:09.459Z,78460.78
2019-02-05T19:54:41.037Z,78463.80
2019-02-05T19:57:14.826Z,78458.77
2019-02-05T19:59:49.444Z,78466.81
2019-02-05T20:02:21.051Z,78454.74
2019-02-05T20:04:52.461Z,78466.81
2019-02-05T20:07:24.039Z,78484.91
2019-02-05T20:09:55.395Z,78490.95
2019-02-05T20:12:27.198Z,78512.06
2019-02-05T20:15:00.333Z,78503.02
2019-02-05T20:17:33.336Z,78500.00
2019-02-05T20:20:05.385Z,78482.91
2019-02-05T20:22:36.744Z,78496.98
2019-02-05T20:25:11.932Z,78475.86
2019-02-05T20:27:43.503Z,78503.02
2019-02-05T20:30:17.218Z,78490.95
2019-02-05T20:32:48.778Z,78498.99
2019-02-05T20:35:23.584Z,78512.06
2019-02-05T20:37:55.469Z,78524.13
2019-02-05T20:40:27.038Z,78516.09
2019-02-05T20:42:58.546Z,78524.13
2019-02-05T20:45:30.003Z,78536.20
2019-02-05T20:48:01.559Z,78559.33
2019-02-05T20:50:33.012Z,78573.41
2019-02-05T20:53:13.432Z,78591.52
2019-02-05T20:55:37.725Z,78607.60
2019-02-05T20:58:09.509Z,78631.73
2019-02-05T21:00:41.017Z,78653.86
2019-02-05T21:03:12.543Z,78667.95
2019-02-05T21:05:44.353Z,78690.07
2019-02-05T21:08:15.994Z,78683.03
2019-02-05T21:10:47.843Z,78640.80
2019-02-05T21:13:19.389Z,78648.84
2019-02-05T21:15:50.858Z,78635.77
2019-02-05T21:18:22.709Z,78641.80
2019-02-05T21:20:54.215Z,78617.66
2019-02-05T21:23:25.650Z,78631.73
2019-02-05T21:25:57.125Z,78629.73
2019-02-05T21:28:28.526Z,78609.61
2019-02-05T21:31:00.091Z,78608.61
2019-02-05T21:33:31.430Z,78637.77
2019-02-05T21:36:02.832Z,78638.78
2019-02-05T21:38:34.145Z,78678.00
2019-02-05T21:41:05.686Z,78699.13
2019-02-05T21:43:37.118Z,78702.14
2019-02-05T21:46:08.881Z,78727.28
2019-02-05T21:48:40.256Z,78753.43
2019-02-05T21:53:48.000Z,78785.61
2019-02-05T21:56:19.450Z,78795.67
2019-02-05T21:58:51.058Z,78807.73
2019-02-05T22:01:22.552Z,78827.86
2019-02-05T22:03:53.897Z,78833.89
2019-02-05T22:06:25.257Z,78845.95
2019-02-05T22:08:56.611Z,78865.06
2019-02-05T22:11:28.120Z,78842.94
2019-02-05T22:13:59.419Z,78841.94
2019-02-05T22:16:30.818Z,78853.00
2019-02-05T22:19:02.027Z,78854.00
2019-02-05T22:21:33.759Z,78860.04
2019-02-05T22:24:05.650Z,78859.03
2019-02-05T22:26:38.519Z,78848.98
2019-02-05T22:29:10.448Z,78810.75
2019-02-05T22:31:41.779Z,78825.84
2019-02-05T22:34:13.565Z,78832.88
2019-02-05T22:36:45.025Z,78813.77
2019-02-05T22:39:19.151Z,78836.91
2019-02-05T22:41:50.526Z,78845.95
2019-02-05T22:44:21.900Z,78846.97
2019-02-05T22:46:53.426Z,78855.01
2019-02-05T22:49:24.727Z,78834.89
2019-02-05T22:51:57.518Z,78845.95
2019-02-05T22:54:28.818Z,78850.98
2019-02-05T22:57:00.247Z,78853.00
2019-02-05T22:59:31.938Z,78850.98
2019-02-05T23:02:05.703Z,78853.00
2019-02-05T23:05:11.504Z,78851.99
2019-02-05T23:07:42.840Z,78854.00
2019-02-05T23:11:19.528Z,78858.03
2019-02-05T23:13:50.839Z,78851.99
2019-02-05T23:16:22.233Z,78868.09
2019-02-05T23:18:53.584Z,78875.13
2019-02-05T23:21:24.911Z,78855.01
2019-02-05T23:23:56.139Z,78859.03
2019-02-05T23:26:27.441Z,78835.91
2019-02-05T23:28:58.614Z,78835.91
2019-02-05T23:31:30.962Z,78841.94
2019-02-05T23:34:02.271Z,78841.94
2019-02-05T23:36:33.584Z,78848.98
2019-02-05T23:39:05.611Z,78860.04
2019-02-05T23:41:36.911Z,78865.06
2019-02-05T23:44:08.309Z,78845.95
2019-02-05T23:46:39.553Z,78868.09
2019-02-05T23:49:10.915Z,78877.14
2019-02-05T23:51:42.190Z,78878.14
2019-02-05T23:54:13.500Z,78881.16
2019-02-05T23:56:44.834Z,78869.09
2019-02-05T23:59:16.176Z,78880.16
